PHKO METAR and TAF weather

Enter ICAO airport designator
Station Type Date Time Source
PHKO METAR 2022/06/28 14:53 UTC NOAA

PHKO 281453Z AUTO 00000KT 10SM CLR 23/19 A3001 RMK AO2 SLP160 T02280189 55001 TSNO


Station Type Date Time Source
PHKO Decoded METAR 2022/06/28 14:53 UTC NOAA

KONA INTERNATIONAL AIRPORT, HI, United States (PHKO) 19-44N 156-03W 27M
Jun 28, 2022 - 10:53 AM EDT / 2022.06.28 1453 UTC
Wind: Calm:0
Visibility: 10 mile(s):0
Sky conditions: clear
Temperature: 73.0 F (22.8 C)
Dew Point: 66.0 F (18.9 C)
Relative Humidity: 78%
Pressure (altimeter): 30.01 in. Hg (1016 hPa)
Pressure tendency: 0.00 inches (0.1 hPa) lower than three hours ago
ob: PHKO 281453Z AUTO 00000KT 10SM CLR 23/19 A3001 RMK AO2 SLP160 T02280189 55001 TSNO
cycle: 15

Station Type Date Time Source
PHKO TAF 2022/06/28 15:15 UTC NOAA

TAF
AMD PHKO 281512Z 2815/2912 13008KT P6SM SCT035 SCT050
FM290000 24011KT P6SM SCT035 SCT050 BKN080
FM290600 11008KT P6SM SCT035 SCT050 BKN080

Example: see airport list